Taiko Maru — JI3683 — position and weather

sailwx.info

Track history (hours):
 
Tides and Currents Weather Stations Pressure Air Temp Water Temp Dewpoint Dewpoint Depression Visibility Wind Speed Wind Dir Waves Ship Positions

Taiko Maru

Last reported at 2018-Feb-22 22:29 UTC. Time now 2018-Feb-22 22:58 UTC.
Position N 34°36' E 135°22'.

Length 118 m; draft 7.4 m.

Type: Cargo ship. MMSI: 431301547.

Date/timePositionNaut miles runAvg speedWind from/ knotsBaromVisibWave heightAir tempDewpointWater temp
2018-Feb-22 22:29N 34°36' E 135°22'0 0.0
2018-Feb-22 21:59N 34°36' E 135°22'0 0.0
2018-Feb-22 21:29N 34°36' E 135°22'0 0.0
2018-Feb-22 20:59N 34°36' E 135°22'0 0.0
2018-Feb-22 20:29N 34°36' E 135°22'0 0.0
2018-Feb-22 19:59N 34°36' E 135°22'0 0.0
2018-Feb-22 19:29N 34°36' E 135°22'0 0.0
2018-Feb-22 18:59N 34°36' E 135°22'0 0.0
2018-Feb-22 18:29N 34°36' E 135°22'0 0.0
2018-Feb-22 17:59N 34°36' E 135°22'0 0.0
2018-Feb-22 17:29N 34°36' E 135°22'0 0.0
2018-Feb-22 16:59N 34°36' E 135°22'0 0.0
2018-Feb-22 16:29N 34°36' E 135°22'0 0.0
2018-Feb-22 15:59N 34°36' E 135°22'0 0.0
2018-Feb-22 15:29N 34°36' E 135°22'0 0.0
2018-Feb-22 14:59N 34°36' E 135°22'0 0.1
2018-Feb-22 14:29N 34°36' E 135°22'0 0.1
2018-Feb-22 13:59N 34°36' E 135°22'0 0.0
2018-Feb-22 13:29N 34°36' E 135°22'0 0.0
2018-Feb-22 12:59N 34°36' E 135°22'0 0.0
2018-Feb-22 12:29N 34°36' E 135°22'0 0.0
2018-Feb-22 11:59N 34°36' E 135°22'0 0.0
2018-Feb-22 11:29N 34°36' E 135°22'0 0.0
2018-Feb-22 10:59N 34°36' E 135°22'0 0.0
2018-Feb-22 10:29N 34°36' E 135°22'0 0.0
2018-Feb-22 09:59N 34°36' E 135°22'0 0.0
2018-Feb-22 09:29N 34°36' E 135°22'0 0.0
2018-Feb-22 08:59N 34°36' E 135°22'1 2.0
2018-Feb-22 08:30N 34°36' E 135°21'612.0
2018-Feb-22 08:00N 34°35' E 135°14'612.3
2018-Feb-22 07:30N 34°35' E 135°06'612.6
2018-Feb-22 07:01N 34°37' E 134°59'612.0
2018-Feb-22 06:30N 34°37' E 134°52'612.2
2018-Feb-22 06:00N 34°39' E 134°45'611.5
2018-Feb-22 05:31N 34°42' E 134°39'611.5
2018-Feb-22 05:01N 34°43' E 134°32'611.6
2018-Feb-22 04:30N 34°42' E 134°24'3 0.8
2018-Feb-22 00:20N 34°45' E 134°22'0 0.0
2018-Feb-21 22:44N 34°45' E 134°22'0 0.0
2018-Feb-21 22:08N 34°45' E 134°22'0 0.0
2018-Feb-21 15:20N 34°45' E 134°22'1 3.1
2018-Feb-21 15:00N 34°44' E 134°22'4 8.2
2018-Feb-21 14:30N 34°42' E 134°27'713.2
2018-Feb-21 14:00N 34°43' E 134°35'612.7
2018-Feb-21 13:30N 34°40' E 134°42'713.2
2018-Feb-21 13:01N 34°38' E 134°50'713.8
2018-Feb-21 12:30N 34°38' E 134°58'611.8
2018-Feb-21 12:01N 34°35' E 135°05'611.4
2018-Feb-21 11:30N 34°30' E 135°04'612.1
2018-Feb-21 11:01N 34°24' E 135°03'611.5
2018-Feb-21 10:31N 34°19' E 134°60'510.8
2018-Feb-21 10:01N 34°13' E 134°60'611.8
2018-Feb-21 09:30N 34°07' E 134°60'611.9
2018-Feb-21 09:01N 34°01' E 134°59'611.7
2018-Feb-21 08:31N 33°55' E 134°59'611.5
2018-Feb-21 08:00N 33°50' E 135°02'612.3
2018-Feb-21 07:30N 33°46' E 135°07'15410.6
2018-Feb-20 16:59N 34°31' E 138°05'8 9.5
2018-Feb-20 16:08N 34°31' E 138°15'1 9.5
2018-Feb-20 16:00N 34°31' E 138°17'14 9.1
2018-Feb-20 14:31N 34°31' E 138°33'0 7.9
2018-Feb-20 14:28N 34°31' E 138°33'4 7.5
2018-Feb-20 13:59N 34°31' E 138°38'11 7.3
2018-Feb-20 12:25N 34°31' E 138°52'4 8.7
2018-Feb-20 11:58N 34°31' E 138°56'610.8
2018-Feb-20 11:24N 34°35' E 139°02'513.7
2018-Feb-20 11:00N 34°40' E 139°06'1213.2
2018-Feb-20 10:07N 34°49' E 139°14'512.2
2018-Feb-20 09:40N 34°53' E 139°18'212.8
2018-Feb-20 09:29N 34°54' E 139°21'612.2
2018-Feb-20 09:00N 34°58' E 139°27'612.1
2018-Feb-20 08:30N 35°01' E 139°33'612.5
2018-Feb-20 08:00N 35°04' E 139°39'612.2
2018-Feb-20 07:30N 35°09' E 139°44'612.7
2018-Feb-20 07:00N 35°15' E 139°46'612.2
2018-Feb-20 06:31N 35°20' E 139°42'510.6
2018-Feb-20 06:00N 35°25' E 139°41'0 0.5
2018-Feb-20 05:28N 35°26' E 139°41'0 0.0
2018-Feb-20 04:58N 35°26' E 139°41'0 0.0
2018-Feb-20 04:28N 35°26' E 139°41'0 0.0
2018-Feb-20 03:58N 35°26' E 139°41'0 0.0
2018-Feb-20 03:28N 35°26' E 139°41'0 0.0
2018-Feb-20 02:58N 35°26' E 139°41'0 0.0
2018-Feb-20 02:28N 35°26' E 139°41'0 0.0
2018-Feb-20 01:58N 35°26' E 139°41'0 0.0
2018-Feb-20 01:28N 35°26' E 139°41'0 0.0
2018-Feb-20 00:58N 35°26' E 139°41'0 0.0
2018-Feb-20 00:28N 35°26' E 139°41'0 0.0
2018-Feb-19 23:58N 35°26' E 139°41'0 0.0
2018-Feb-19 23:28N 35°26' E 139°41'0 0.0
2018-Feb-19 22:58N 35°26' E 139°41'0 0.0
2018-Feb-19 22:28N 35°26' E 139°41'0 0.0
2018-Feb-19 21:58N 35°26' E 139°41'0 0.0
2018-Feb-19 21:25N 35°26' E 139°41'0 0.0
2018-Feb-19 20:58N 35°26' E 139°41'0 0.0
2018-Feb-19 20:28N 35°26' E 139°41'0 0.0
2018-Feb-19 19:58N 35°26' E 139°41'0 0.0
2018-Feb-19 19:28N 35°26' E 139°41'0 0.0
2018-Feb-19 18:58N 35°26' E 139°41'0 0.0
2018-Feb-19 18:28N 35°26' E 139°41'0 0.0
2018-Feb-19 17:58N 35°26' E 139°41'0 0.0
2018-Feb-19 17:28N 35°26' E 139°41'0 0.0
2018-Feb-19 16:58N 35°26' E 139°41'0 0.0
2018-Feb-19 16:28N 35°26' E 139°41'0 0.0
2018-Feb-19 15:58N 35°26' E 139°41'0 0.0
2018-Feb-19 15:28N 35°26' E 139°41'0 0.0
2018-Feb-19 14:58N 35°26' E 139°41'0 0.0
2018-Feb-19 14:28N 35°26' E 139°41'0 0.1
2018-Feb-19 13:58N 35°26' E 139°41'0 0.0
2018-Feb-19 13:28N 35°26' E 139°41'0 0.0
2018-Feb-19 12:58N 35°26' E 139°41'0 0.0
2018-Feb-19 12:28N 35°26' E 139°41'0 0.0
2018-Feb-19 11:58N 35°26' E 139°41'0 0.0
2018-Feb-19 11:28N 35°26' E 139°41'0 0.0
2018-Feb-19 10:58N 35°26' E 139°41'0 0.0
2018-Feb-19 10:28N 35°26' E 139°41'0 0.0
2018-Feb-19 09:58N 35°26' E 139°41'0 0.0
2018-Feb-19 09:28N 35°26' E 139°41'0 0.0
2018-Feb-19 08:58N 35°26' E 139°41'0 0.4
2018-Feb-19 08:30N 35°25' E 139°41'4 8.2
2018-Feb-19 08:00N 35°22' E 139°43'612.4
2018-Feb-19 07:30N 35°16' E 139°46'611.1
2018-Feb-19 07:00N 35°10' E 139°46'510.8
2018-Feb-19 06:30N 35°05' E 139°45'612.0
2018-Feb-19 06:00N 35°01' E 139°39'611.9
2018-Feb-19 05:27N 34°57' E 139°33'611.9
2018-Feb-19 04:58N 34°54' E 139°27'511.8
2018-Feb-19 04:30N 34°51' E 139°22'712.6
2018-Feb-19 03:59N 34°46' E 139°16'713.5
2018-Feb-19 03:28N 34°41' E 139°10'613.2
2018-Feb-19 03:00N 34°37' E 139°05'612.6
2018-Feb-19 02:30N 34°33' E 138°59'612.0
2018-Feb-19 02:01N 34°31' E 138°52'812.3
2018-Feb-19 01:19N 34°30' E 138°42'512.5
2018-Feb-19 00:56N 34°29' E 138°36'612.3
2018-Feb-19 00:27N 34°28' E 138°29'512.2
2018-Feb-19 00:00N 34°27' E 138°23'712.7
2018-Feb-18 23:27N 34°25' E 138°14'15910.5
2018-Feb-18 08:20N 33°43' E 135°10'412.4
2018-Feb-18 08:00N 33°46' E 135°07'612.6
2018-Feb-18 07:30N 33°51' E 135°02'612.1
2018-Feb-18 07:00N 33°57' E 135°00'612.7
2018-Feb-18 06:30N 34°03' E 135°01'612.8
2018-Feb-18 06:01N 34°10' E 135°03'510.8
2018-Feb-18 05:30N 34°14' E 135°06'1 2.5
2018-Feb-18 04:58N 34°14' E 135°08'0 0.0
2018-Feb-18 04:28N 34°14' E 135°08'0 0.0
2018-Feb-18 03:58N 34°14' E 135°08'0 0.0
2018-Feb-18 03:28N 34°14' E 135°08'0 0.0
2018-Feb-18 02:46N 34°14' E 135°08'0 0.0
2018-Feb-18 02:28N 34°14' E 135°08'0 0.0
2018-Feb-18 01:58N 34°14' E 135°08'0 0.0
2018-Feb-18 01:28N 34°14' E 135°08'0 0.0
2018-Feb-18 00:55N 34°14' E 135°08'0 0.0
2018-Feb-18 00:28N 34°14' E 135°08'0 0.0
2018-Feb-17 23:43N 34°14' E 135°08'0 0.0
2018-Feb-17 23:28N 34°14' E 135°08'0 0.0
2018-Feb-17 22:58N 34°14' E 135°08'0 0.0
2018-Feb-17 22:28N 34°14' E 135°08'1 1.9
2018-Feb-17 22:00N 34°14' E 135°07'2 4.9
2018-Feb-17 21:30N 34°12' E 135°06'1 1.8
2018-Feb-17 20:58N 34°11' E 135°07'0 0.0
2018-Feb-17 20:28N 34°11' E 135°07'0 0.1
2018-Feb-17 19:58N 34°11' E 135°07'0 0.1
2018-Feb-17 19:28N 34°11' E 135°07'0 0.0
2018-Feb-17 18:58N 34°11' E 135°07'0 0.0
2018-Feb-17 18:28N 34°11' E 135°07'0 0.0
2018-Feb-17 17:58N 34°11' E 135°07'0 0.0
2018-Feb-17 17:28N 34°11' E 135°07'0 0.0
2018-Feb-17 16:58N 34°11' E 135°07'0 0.1
2018-Feb-17 16:28N 34°11' E 135°07'0 0.1
2018-Feb-17 15:58N 34°11' E 135°07'0 0.0
2018-Feb-17 15:28N 34°11' E 135°07'0 0.1
2018-Feb-17 14:58N 34°11' E 135°07'0 0.1
2018-Feb-17 14:28N 34°11' E 135°07'0 0.0
2018-Feb-17 13:58N 34°11' E 135°07'0 0.0
2018-Feb-17 13:28N 34°11' E 135°07'0 0.0
2018-Feb-17 12:58N 34°11' E 135°07'0 0.0
2018-Feb-17 12:28N 34°11' E 135°07'0 0.0
2018-Feb-17 11:58N 34°11' E 135°07'0 0.0
2018-Feb-17 11:28N 34°11' E 135°07'0 0.0
2018-Feb-17 10:59N 34°11' E 135°07'2 3.9
2018-Feb-17 10:31N 34°12' E 135°05'612.8
2018-Feb-17 10:00N 34°16' E 134°59'612.2
2018-Feb-17 09:30N 34°22' E 134°60'612.8
2018-Feb-17 09:01N 34°28' E 135°01'611.9
2018-Feb-17 08:30N 34°34' E 135°03'611.2
2018-Feb-17 08:01N 34°36' E 134°57'713.7
2018-Feb-17 07:31N 34°38' E 134°49'612.8
2018-Feb-17 07:01N 34°40' E 134°42'712.3
2018-Feb-17 06:28N 34°43' E 134°34'613.1
2018-Feb-17 05:59N 34°42' E 134°26'4 0.7
2018-Feb-16 23:52N 34°45' E 134°22'0 0.3
2018-Feb-16 23:30N 34°45' E 134°22'3 5.8
2018-Feb-16 23:00N 34°42' E 134°23'612.4
2018-Feb-16 22:30N 34°43' E 134°31'611.7
2018-Feb-16 22:01N 34°43' E 134°38'611.7
2018-Feb-16 21:31N 34°40' E 134°43'612.0
2018-Feb-16 21:01N 34°38' E 134°51'611.9
2018-Feb-16 20:30N 34°37' E 134°58'510.2
2018-Feb-16 20:01N 34°36' E 135°04'4 8.6
2018-Feb-16 19:30N 34°32' E 135°05'612.5
2018-Feb-16 19:01N 34°26' E 135°03'612.3
2018-Feb-16 18:31N 34°20' E 135°00'510.5
2018-Feb-16 18:01N 34°15' E 134°59'611.3
2018-Feb-16 17:30N 34°09' E 134°60'612.1
2018-Feb-16 17:00N 34°03' E 134°60'612.2
2018-Feb-16 16:31N 33°57' E 134°59'611.5
2018-Feb-16 16:01N 33°51' E 135°00'612.5
2018-Feb-16 15:30N 33°47' E 135°06'1412.8
2018-Feb-16 14:26N 33°36' E 135°17'15811.5
2018-Feb-16 00:45N 34°26' E 138°17'311.5
2018-Feb-16 00:27N 34°27' E 138°21'512.1
2018-Feb-16 00:00N 34°28' E 138°27'1012.1
2018-Feb-15 23:12N 34°29' E 138°39'312.2
2018-Feb-15 23:00N 34°30' E 138°42'812.5
2018-Feb-15 22:22N 34°31' E 138°51'512.9
2018-Feb-15 22:00N 34°32' E 138°57'612.2
2018-Feb-15 21:30N 34°33' E 139°04'612.5
2018-Feb-15 21:00N 34°35' E 139°12'712.1
2018-Feb-15 20:28N 34°36' E 139°19'511.7
2018-Feb-15 20:00N 34°38' E 139°26'812.5
2018-Feb-15 19:21N 34°42' E 139°34'1113.4
2018-Feb-15 18:31N 34°47' E 139°46'1613.0
2018-Feb-15 17:20N 34°55' E 140°02'413.3
2018-Feb-15 17:01N 34°57' E 140°07'  
Track history (hours):
 
Tides and Currents Weather Stations Pressure Air Temp Water Temp Dewpoint Dewpoint Depression Visibility Wind Speed Wind Dir Waves Ship Positions

Taiko Maru

Last reported at 2018-Feb-22 22:29 UTC. Time now 2018-Feb-22 22:58 UTC.
Position N 34°36' E 135°22'.

Length 118 m; draft 7.4 m.

Type: Cargo ship. MMSI: 431301547.

Date/timePositionNaut miles runAvg speedWind from/ knotsBaromVisibWave heightAir tempDewpointWater temp
2018-Feb-22 22:29N 34°36' E 135°22'0 0.0
2018-Feb-22 21:59N 34°36' E 135°22'0 0.0
2018-Feb-22 21:29N 34°36' E 135°22'0 0.0
2018-Feb-22 20:59N 34°36' E 135°22'0 0.0
2018-Feb-22 20:29N 34°36' E 135°22'0 0.0
2018-Feb-22 19:59N 34°36' E 135°22'0 0.0
2018-Feb-22 19:29N 34°36' E 135°22'0 0.0
2018-Feb-22 18:59N 34°36' E 135°22'0 0.0
2018-Feb-22 18:29N 34°36' E 135°22'0 0.0
2018-Feb-22 17:59N 34°36' E 135°22'0 0.0
2018-Feb-22 17:29N 34°36' E 135°22'0 0.0
2018-Feb-22 16:59N 34°36' E 135°22'0 0.0
2018-Feb-22 16:29N 34°36' E 135°22'0 0.0
2018-Feb-22 15:59N 34°36' E 135°22'0 0.0
2018-Feb-22 15:29N 34°36' E 135°22'0 0.0
2018-Feb-22 14:59N 34°36' E 135°22'0 0.1
2018-Feb-22 14:29N 34°36' E 135°22'0 0.1
2018-Feb-22 13:59N 34°36' E 135°22'0 0.0
2018-Feb-22 13:29N 34°36' E 135°22'0 0.0
2018-Feb-22 12:59N 34°36' E 135°22'0 0.0
2018-Feb-22 12:29N 34°36' E 135°22'0 0.0
2018-Feb-22 11:59N 34°36' E 135°22'0 0.0
2018-Feb-22 11:29N 34°36' E 135°22'0 0.0
2018-Feb-22 10:59N 34°36' E 135°22'0 0.0
2018-Feb-22 10:29N 34°36' E 135°22'0 0.0
2018-Feb-22 09:59N 34°36' E 135°22'0 0.0
2018-Feb-22 09:29N 34°36' E 135°22'0 0.0
2018-Feb-22 08:59N 34°36' E 135°22'1 2.0
2018-Feb-22 08:30N 34°36' E 135°21'612.0
2018-Feb-22 08:00N 34°35' E 135°14'612.3
2018-Feb-22 07:30N 34°35' E 135°06'612.6
2018-Feb-22 07:01N 34°37' E 134°59'612.0
2018-Feb-22 06:30N 34°37' E 134°52'612.2
2018-Feb-22 06:00N 34°39' E 134°45'611.5
2018-Feb-22 05:31N 34°42' E 134°39'611.5
2018-Feb-22 05:01N 34°43' E 134°32'611.6
2018-Feb-22 04:30N 34°42' E 134°24'3 0.8
2018-Feb-22 00:20N 34°45' E 134°22'0 0.0
2018-Feb-21 22:44N 34°45' E 134°22'0 0.0
2018-Feb-21 22:08N 34°45' E 134°22'0 0.0
2018-Feb-21 15:20N 34°45' E 134°22'1 3.1
2018-Feb-21 15:00N 34°44' E 134°22'4 8.2
2018-Feb-21 14:30N 34°42' E 134°27'713.2
2018-Feb-21 14:00N 34°43' E 134°35'612.7
2018-Feb-21 13:30N 34°40' E 134°42'713.2
2018-Feb-21 13:01N 34°38' E 134°50'713.8
2018-Feb-21 12:30N 34°38' E 134°58'611.8
2018-Feb-21 12:01N 34°35' E 135°05'611.4
2018-Feb-21 11:30N 34°30' E 135°04'612.1
2018-Feb-21 11:01N 34°24' E 135°03'611.5
2018-Feb-21 10:31N 34°19' E 134°60'510.8
2018-Feb-21 10:01N 34°13' E 134°60'611.8
2018-Feb-21 09:30N 34°07' E 134°60'611.9
2018-Feb-21 09:01N 34°01' E 134°59'611.7
2018-Feb-21 08:31N 33°55' E 134°59'611.5
2018-Feb-21 08:00N 33°50' E 135°02'612.3
2018-Feb-21 07:30N 33°46' E 135°07'15410.6
2018-Feb-20 16:59N 34°31' E 138°05'8 9.5
2018-Feb-20 16:08N 34°31' E 138°15'1 9.5
2018-Feb-20 16:00N 34°31' E 138°17'14 9.1
2018-Feb-20 14:31N 34°31' E 138°33'0 7.9
2018-Feb-20 14:28N 34°31' E 138°33'4 7.5
2018-Feb-20 13:59N 34°31' E 138°38'11 7.3
2018-Feb-20 12:25N 34°31' E 138°52'4 8.7
2018-Feb-20 11:58N 34°31' E 138°56'610.8
2018-Feb-20 11:24N 34°35' E 139°02'513.7
2018-Feb-20 11:00N 34°40' E 139°06'1213.2
2018-Feb-20 10:07N 34°49' E 139°14'512.2
2018-Feb-20 09:40N 34°53' E 139°18'212.8
2018-Feb-20 09:29N 34°54' E 139°21'612.2
2018-Feb-20 09:00N 34°58' E 139°27'612.1
2018-Feb-20 08:30N 35°01' E 139°33'612.5
2018-Feb-20 08:00N 35°04' E 139°39'612.2
2018-Feb-20 07:30N 35°09' E 139°44'612.7
2018-Feb-20 07:00N 35°15' E 139°46'612.2
2018-Feb-20 06:31N 35°20' E 139°42'510.6
2018-Feb-20 06:00N 35°25' E 139°41'0 0.5
2018-Feb-20 05:28N 35°26' E 139°41'0 0.0
2018-Feb-20 04:58N 35°26' E 139°41'0 0.0
2018-Feb-20 04:28N 35°26' E 139°41'0 0.0
2018-Feb-20 03:58N 35°26' E 139°41'0 0.0
2018-Feb-20 03:28N 35°26' E 139°41'0 0.0
2018-Feb-20 02:58N 35°26' E 139°41'0 0.0
2018-Feb-20 02:28N 35°26' E 139°41'0 0.0
2018-Feb-20 01:58N 35°26' E 139°41'0 0.0
2018-Feb-20 01:28N 35°26' E 139°41'0 0.0
2018-Feb-20 00:58N 35°26' E 139°41'0 0.0
2018-Feb-20 00:28N 35°26' E 139°41'0 0.0
2018-Feb-19 23:58N 35°26' E 139°41'0 0.0
2018-Feb-19 23:28N 35°26' E 139°41'0 0.0
2018-Feb-19 22:58N 35°26' E 139°41'0 0.0
2018-Feb-19 22:28N 35°26' E 139°41'0 0.0
2018-Feb-19 21:58N 35°26' E 139°41'0 0.0
2018-Feb-19 21:25N 35°26' E 139°41'0 0.0
2018-Feb-19 20:58N 35°26' E 139°41'0 0.0
2018-Feb-19 20:28N 35°26' E 139°41'0 0.0
2018-Feb-19 19:58N 35°26' E 139°41'0 0.0
2018-Feb-19 19:28N 35°26' E 139°41'0 0.0
2018-Feb-19 18:58N 35°26' E 139°41'0 0.0
2018-Feb-19 18:28N 35°26' E 139°41'0 0.0
2018-Feb-19 17:58N 35°26' E 139°41'0 0.0
2018-Feb-19 17:28N 35°26' E 139°41'0 0.0
2018-Feb-19 16:58N 35°26' E 139°41'0 0.0
2018-Feb-19 16:28N 35°26' E 139°41'0 0.0
2018-Feb-19 15:58N 35°26' E 139°41'0 0.0
2018-Feb-19 15:28N 35°26' E 139°41'0 0.0
2018-Feb-19 14:58N 35°26' E 139°41'0 0.0
2018-Feb-19 14:28N 35°26' E 139°41'0 0.1
2018-Feb-19 13:58N 35°26' E 139°41'0 0.0
2018-Feb-19 13:28N 35°26' E 139°41'0 0.0
2018-Feb-19 12:58N 35°26' E 139°41'0 0.0
2018-Feb-19 12:28N 35°26' E 139°41'0 0.0
2018-Feb-19 11:58N 35°26' E 139°41'0 0.0
2018-Feb-19 11:28N 35°26' E 139°41'0 0.0
2018-Feb-19 10:58N 35°26' E 139°41'0 0.0
2018-Feb-19 10:28N 35°26' E 139°41'0 0.0
2018-Feb-19 09:58N 35°26' E 139°41'0 0.0
2018-Feb-19 09:28N 35°26' E 139°41'0 0.0
2018-Feb-19 08:58N 35°26' E 139°41'0 0.4
2018-Feb-19 08:30N 35°25' E 139°41'4 8.2
2018-Feb-19 08:00N 35°22' E 139°43'612.4
2018-Feb-19 07:30N 35°16' E 139°46'611.1
2018-Feb-19 07:00N 35°10' E 139°46'510.8
2018-Feb-19 06:30N 35°05' E 139°45'612.0
2018-Feb-19 06:00N 35°01' E 139°39'611.9
2018-Feb-19 05:27N 34°57' E 139°33'611.9
2018-Feb-19 04:58N 34°54' E 139°27'511.8
2018-Feb-19 04:30N 34°51' E 139°22'712.6
2018-Feb-19 03:59N 34°46' E 139°16'713.5
2018-Feb-19 03:28N 34°41' E 139°10'613.2
2018-Feb-19 03:00N 34°37' E 139°05'612.6
2018-Feb-19 02:30N 34°33' E 138°59'612.0
2018-Feb-19 02:01N 34°31' E 138°52'812.3
2018-Feb-19 01:19N 34°30' E 138°42'512.5
2018-Feb-19 00:56N 34°29' E 138°36'612.3
2018-Feb-19 00:27N 34°28' E 138°29'512.2
2018-Feb-19 00:00N 34°27' E 138°23'712.7
2018-Feb-18 23:27N 34°25' E 138°14'15910.5
2018-Feb-18 08:20N 33°43' E 135°10'412.4
2018-Feb-18 08:00N 33°46' E 135°07'612.6
2018-Feb-18 07:30N 33°51' E 135°02'612.1
2018-Feb-18 07:00N 33°57' E 135°00'612.7
2018-Feb-18 06:30N 34°03' E 135°01'612.8
2018-Feb-18 06:01N 34°10' E 135°03'510.8
2018-Feb-18 05:30N 34°14' E 135°06'1 2.5
2018-Feb-18 04:58N 34°14' E 135°08'0 0.0
2018-Feb-18 04:28N 34°14' E 135°08'0 0.0
2018-Feb-18 03:58N 34°14' E 135°08'0 0.0
2018-Feb-18 03:28N 34°14' E 135°08'0 0.0
2018-Feb-18 02:46N 34°14' E 135°08'0 0.0
2018-Feb-18 02:28N 34°14' E 135°08'0 0.0
2018-Feb-18 01:58N 34°14' E 135°08'0 0.0
2018-Feb-18 01:28N 34°14' E 135°08'0 0.0
2018-Feb-18 00:55N 34°14' E 135°08'0 0.0
2018-Feb-18 00:28N 34°14' E 135°08'0 0.0
2018-Feb-17 23:43N 34°14' E 135°08'0 0.0
2018-Feb-17 23:28N 34°14' E 135°08'0 0.0
2018-Feb-17 22:58N 34°14' E 135°08'0 0.0
2018-Feb-17 22:28N 34°14' E 135°08'1 1.9
2018-Feb-17 22:00N 34°14' E 135°07'2 4.9
2018-Feb-17 21:30N 34°12' E 135°06'1 1.8
2018-Feb-17 20:58N 34°11' E 135°07'0 0.0
2018-Feb-17 20:28N 34°11' E 135°07'0 0.1
2018-Feb-17 19:58N 34°11' E 135°07'0 0.1
2018-Feb-17 19:28N 34°11' E 135°07'0 0.0
2018-Feb-17 18:58N 34°11' E 135°07'0 0.0
2018-Feb-17 18:28N 34°11' E 135°07'0 0.0
2018-Feb-17 17:58N 34°11' E 135°07'0 0.0
2018-Feb-17 17:28N 34°11' E 135°07'0 0.0
2018-Feb-17 16:58N 34°11' E 135°07'0 0.1
2018-Feb-17 16:28N 34°11' E 135°07'0 0.1
2018-Feb-17 15:58N 34°11' E 135°07'0 0.0
2018-Feb-17 15:28N 34°11' E 135°07'0 0.1
2018-Feb-17 14:58N 34°11' E 135°07'0 0.1
2018-Feb-17 14:28N 34°11' E 135°07'0 0.0
2018-Feb-17 13:58N 34°11' E 135°07'0 0.0
2018-Feb-17 13:28N 34°11' E 135°07'0 0.0
2018-Feb-17 12:58N 34°11' E 135°07'0 0.0
2018-Feb-17 12:28N 34°11' E 135°07'0 0.0
2018-Feb-17 11:58N 34°11' E 135°07'0 0.0
2018-Feb-17 11:28N 34°11' E 135°07'0 0.0
2018-Feb-17 10:59N 34°11' E 135°07'2 3.9
2018-Feb-17 10:31N 34°12' E 135°05'612.8
2018-Feb-17 10:00N 34°16' E 134°59'612.2
2018-Feb-17 09:30N 34°22' E 134°60'612.8
2018-Feb-17 09:01N 34°28' E 135°01'611.9
2018-Feb-17 08:30N 34°34' E 135°03'611.2
2018-Feb-17 08:01N 34°36' E 134°57'713.7
2018-Feb-17 07:31N 34°38' E 134°49'612.8
2018-Feb-17 07:01N 34°40' E 134°42'712.3
2018-Feb-17 06:28N 34°43' E 134°34'613.1
2018-Feb-17 05:59N 34°42' E 134°26'4 0.7
2018-Feb-16 23:52N 34°45' E 134°22'0 0.3
2018-Feb-16 23:30N 34°45' E 134°22'3 5.8
2018-Feb-16 23:00N 34°42' E 134°23'612.4
2018-Feb-16 22:30N 34°43' E 134°31'611.7
2018-Feb-16 22:01N 34°43' E 134°38'611.7
2018-Feb-16 21:31N 34°40' E 134°43'612.0
2018-Feb-16 21:01N 34°38' E 134°51'611.9
2018-Feb-16 20:30N 34°37' E 134°58'510.2
2018-Feb-16 20:01N 34°36' E 135°04'4 8.6
2018-Feb-16 19:30N 34°32' E 135°05'612.5
2018-Feb-16 19:01N 34°26' E 135°03'612.3
2018-Feb-16 18:31N 34°20' E 135°00'510.5
2018-Feb-16 18:01N 34°15' E 134°59'611.3
2018-Feb-16 17:30N 34°09' E 134°60'612.1
2018-Feb-16 17:00N 34°03' E 134°60'612.2
2018-Feb-16 16:31N 33°57' E 134°59'611.5
2018-Feb-16 16:01N 33°51' E 135°00'612.5
2018-Feb-16 15:30N 33°47' E 135°06'1412.8
2018-Feb-16 14:26N 33°36' E 135°17'15811.5
2018-Feb-16 00:45N 34°26' E 138°17'311.5
2018-Feb-16 00:27N 34°27' E 138°21'512.1
2018-Feb-16 00:00N 34°28' E 138°27'1012.1
2018-Feb-15 23:12N 34°29' E 138°39'312.2
2018-Feb-15 23:00N 34°30' E 138°42'812.5
2018-Feb-15 22:22N 34°31' E 138°51'512.9
2018-Feb-15 22:00N 34°32' E 138°57'612.2
2018-Feb-15 21:30N 34°33' E 139°04'612.5
2018-Feb-15 21:00N 34°35' E 139°12'712.1
2018-Feb-15 20:28N 34°36' E 139°19'511.7
2018-Feb-15 20:00N 34°38' E 139°26'812.5
2018-Feb-15 19:21N 34°42' E 139°34'1113.4
2018-Feb-15 18:31N 34°47' E 139°46'1613.0
2018-Feb-15 17:20N 34°55' E 140°02'413.3
2018-Feb-15 17:01N 34°57' E 140°07'  

Dump ship's entire track history